sensor_id;sensor_type;location;lat;lon;timestamp;pressure;altitude;pressure_sealevel;temperature;humidity
75513;BME280;64090;49.770;18.760;2023-05-07T00:00:33;97808.39;;;9.73;83.86
75513;BME280;64090;49.770;18.760;2023-05-07T00:03:54;97807.75;;;9.68;84.36
75513;BME280;64090;49.770;18.760;2023-05-07T00:06:58;97803.73;;;9.65;84.11
75513;BME280;64090;49.770;18.760;2023-05-07T00:10:01;97806.50;;;9.63;83.92
75513;BME280;64090;49.770;18.760;2023-05-07T00:13:07;97804.86;;;9.61;83.82
75513;BME280;64090;49.770;18.760;2023-05-07T00:16:10;97805.46;;;9.60;83.67
75513;BME280;64090;49.770;18.760;2023-05-07T00:19:13;97805.70;;;9.58;83.50
75513;BME280;64090;49.770;18.760;2023-05-07T00:22:16;97809.91;;;9.57;83.58
75513;BME280;64090;49.770;18.760;2023-05-07T00:25:19;97806.77;;;9.55;83.50
75513;BME280;64090;49.770;18.760;2023-05-07T00:28:22;97806.70;;;9.53;83.61
75513;BME280;64090;49.770;18.760;2023-05-07T00:31:25;97804.32;;;9.51;83.69
75513;BME280;64090;49.770;18.760;2023-05-07T00:34:28;97803.08;;;9.48;83.65
75513;BME280;64090;49.770;18.760;2023-05-07T00:37:31;97804.67;;;9.47;83.77
75513;BME280;64090;49.770;18.760;2023-05-07T00:40:34;97809.02;;;9.46;83.65
75513;BME280;64090;49.770;18.760;2023-05-07T00:43:37;97812.09;;;9.45;83.55
75513;BME280;64090;49.770;18.760;2023-05-07T00:46:40;97814.45;;;9.45;83.28
75513;BME280;64090;49.770;18.760;2023-05-07T00:49:44;97817.48;;;9.45;83.24
75513;BME280;64090;49.770;18.760;2023-05-07T00:52:48;97818.04;;;9.44;83.22
75513;BME280;64090;49.770;18.760;2023-05-07T00:55:51;97817.26;;;9.44;83.47
75513;BME280;64090;49.770;18.760;2023-05-07T00:58:54;97820.60;;;9.41;83.49
75513;BME280;64090;49.770;18.760;2023-05-07T01:01:57;97819.48;;;9.39;83.55
75513;BME280;64090;49.770;18.760;2023-05-07T01:05:01;97818.09;;;9.37;83.47
75513;BME280;64090;49.770;18.760;2023-05-07T01:08:06;97822.23;;;9.37;83.80
75513;BME280;64090;49.770;18.760;2023-05-07T01:11:10;97825.09;;;9.35;84.01
75513;BME280;64090;49.770;18.760;2023-05-07T01:14:14;97821.40;;;9.32;84.44
75513;BME280;64090;49.770;18.760;2023-05-07T01:17:17;97821.67;;;9.29;84.63
75513;BME280;64090;49.770;18.760;2023-05-07T01:20:20;97822.07;;;9.27;84.61
75513;BME280;64090;49.770;18.760;2023-05-07T01:23:23;97824.70;;;9.24;84.57
75513;BME280;64090;49.770;18.760;2023-05-07T01:26:27;97822.98;;;9.24;84.78
75513;BME280;64090;49.770;18.760;2023-05-07T01:29:30;97823.53;;;9.20;85.04
75513;BME280;64090;49.770;18.760;2023-05-07T01:32:40;97823.06;;;9.16;85.00
75513;BME280;64090;49.770;18.760;2023-05-07T01:35:46;97820.42;;;9.12;84.98
75513;BME280;64090;49.770;18.760;2023-05-07T01:38:49;97819.39;;;9.09;84.69
75513;BME280;64090;49.770;18.760;2023-05-07T01:41:54;97818.21;;;9.05;84.65
75513;BME280;64090;49.770;18.760;2023-05-07T01:44:58;97818.23;;;9.03;84.51
75513;BME280;64090;49.770;18.760;2023-05-07T01:48:02;97823.35;;;9.01;84.24
75513;BME280;64090;49.770;18.760;2023-05-07T01:51:05;97824.52;;;8.99;84.30
75513;BME280;64090;49.770;18.760;2023-05-07T01:54:08;97823.13;;;8.96;84.25
75513;BME280;64090;49.770;18.760;2023-05-07T01:57:11;97821.11;;;8.93;84.63
75513;BME280;64090;49.770;18.760;2023-05-07T02:00:14;97823.98;;;8.92;84.30
75513;BME280;64090;49.770;18.760;2023-05-07T02:03:17;97821.16;;;8.90;84.45
75513;BME280;64090;49.770;18.760;2023-05-07T02:06:20;97818.29;;;8.88;84.52
75513;BME280;64090;49.770;18.760;2023-05-07T02:09:23;97817.94;;;8.86;84.58
75513;BME280;64090;49.770;18.760;2023-05-07T02:12:26;97818.64;;;8.85;84.55
75513;BME280;64090;49.770;18.760;2023-05-07T02:15:29;97819.15;;;8.84;84.75
75513;BME280;64090;49.770;18.760;2023-05-07T02:18:32;97816.42;;;8.83;84.90
75513;BME280;64090;49.770;18.760;2023-05-07T02:21:34;97817.84;;;8.80;85.31
75513;BME280;64090;49.770;18.760;2023-05-07T02:24:37;97821.34;;;8.77;85.48
75513;BME280;64090;49.770;18.760;2023-05-07T02:27:40;97818.20;;;8.73;85.90
75513;BME280;64090;49.770;18.760;2023-05-07T02:30:43;97819.40;;;8.69;85.86
75513;BME280;64090;49.770;18.760;2023-05-07T02:33:46;97817.95;;;8.65;86.09
75513;BME280;64090;49.770;18.760;2023-05-07T02:36:49;97815.96;;;8.63;85.78
75513;BME280;64090;49.770;18.760;2023-05-07T02:39:52;97811.91;;;8.61;85.94
75513;BME280;64090;49.770;18.760;2023-05-07T02:42:55;97813.50;;;8.60;86.24
75513;BME280;64090;49.770;18.760;2023-05-07T02:46:05;97811.93;;;8.55;86.09
75513;BME280;64090;49.770;18.760;2023-05-07T02:49:09;97814.29;;;8.54;85.98
75513;BME280;64090;49.770;18.760;2023-05-07T02:52:12;97813.98;;;8.52;86.39
75513;BME280;64090;49.770;18.760;2023-05-07T02:55:15;97816.13;;;8.50;86.48
75513;BME280;64090;49.770;18.760;2023-05-07T02:58:18;97819.15;;;8.49;86.12
75513;BME280;64090;49.770;18.760;2023-05-07T03:01:21;97814.61;;;8.48;86.54
75513;BME280;64090;49.770;18.760;2023-05-07T03:04:23;97821.04;;;8.47;87.10
75513;BME280;64090;49.770;18.760;2023-05-07T03:07:26;97822.39;;;8.48;86.92
75513;BME280;64090;49.770;18.760;2023-05-07T03:10:30;97823.03;;;8.47;87.03
75513;BME280;64090;49.770;18.760;2023-05-07T03:13:32;97823.67;;;8.46;86.99
75513;BME280;64090;49.770;18.760;2023-05-07T03:16:35;97826.16;;;8.46;86.93
75513;BME280;64090;49.770;18.760;2023-05-07T03:19:38;97825.77;;;8.45;87.06
75513;BME280;64090;49.770;18.760;2023-05-07T03:22:41;97826.86;;;8.43;86.99
75513;BME280;64090;49.770;18.760;2023-05-07T03:25:44;97829.57;;;8.40;87.09
75513;BME280;64090;49.770;18.760;2023-05-07T03:28:47;97835.74;;;8.40;86.56
75513;BME280;64090;49.770;18.760;2023-05-07T03:31:50;97837.87;;;8.40;86.63
75513;BME280;64090;49.770;18.760;2023-05-07T03:34:52;97843.23;;;8.39;86.83
75513;BME280;64090;49.770;18.760;2023-05-07T03:37:55;97842.88;;;8.38;87.07
75513;BME280;64090;49.770;18.760;2023-05-07T03:40:58;97842.95;;;8.37;86.83
75513;BME280;64090;49.770;18.760;2023-05-07T03:44:01;97841.71;;;8.36;87.04
75513;BME280;64090;49.770;18.760;2023-05-07T03:47:04;97845.67;;;8.36;86.86
75513;BME280;64090;49.770;18.760;2023-05-07T03:50:07;97849.11;;;8.36;87.08
75513;BME280;64090;49.770;18.760;2023-05-07T03:53:10;97851.14;;;8.37;86.62
75513;BME280;64090;49.770;18.760;2023-05-07T03:56:13;97848.63;;;8.38;86.60
75513;BME280;64090;49.770;18.760;2023-05-07T03:59:16;97855.23;;;8.38;86.34
75513;BME280;64090;49.770;18.760;2023-05-07T04:02:18;97854.86;;;8.39;86.47
75513;BME280;64090;49.770;18.760;2023-05-07T04:05:21;97857.62;;;8.41;86.11
75513;BME280;64090;49.770;18.760;2023-05-07T04:08:24;97858.91;;;8.44;86.13
75513;BME280;64090;49.770;18.760;2023-05-07T04:11:27;97861.80;;;8.45;86.11
75513;BME280;64090;49.770;18.760;2023-05-07T04:14:30;97868.17;;;8.46;86.35
75513;BME280;64090;49.770;18.760;2023-05-07T04:17:34;97867.39;;;8.44;86.73
75513;BME280;64090;49.770;18.760;2023-05-07T04:20:37;97873.83;;;8.44;86.84
75513;BME280;64090;49.770;18.760;2023-05-07T04:23:40;97877.74;;;8.44;86.74
75513;BME280;64090;49.770;18.760;2023-05-07T04:26:43;97882.32;;;8.45;86.82
75513;BME280;64090;49.770;18.760;2023-05-07T04:29:46;97883.85;;;8.43;86.73
75513;BME280;64090;49.770;18.760;2023-05-07T04:32:50;97891.44;;;8.45;87.00
75513;BME280;64090;49.770;18.760;2023-05-07T04:35:53;97896.10;;;8.46;86.77
75513;BME280;64090;49.770;18.760;2023-05-07T04:38:55;97898.02;;;8.48;86.65
75513;BME280;64090;49.770;18.760;2023-05-07T04:41:58;97907.25;;;8.53;86.42
75513;BME280;64090;49.770;18.760;2023-05-07T04:45:02;97909.10;;;8.57;86.53
75513;BME280;64090;49.770;18.760;2023-05-07T04:48:05;97913.52;;;8.58;86.37
75513;BME280;64090;49.770;18.760;2023-05-07T04:51:08;97916.36;;;8.61;86.50
75513;BME280;64090;49.770;18.760;2023-05-07T04:54:11;97921.77;;;8.64;86.42
75513;BME280;64090;49.770;18.760;2023-05-07T04:57:14;97923.65;;;8.65;86.38
75513;BME280;64090;49.770;18.760;2023-05-07T05:00:17;97919.63;;;8.63;86.46
75513;BME280;64090;49.770;18.760;2023-05-07T05:03:22;97923.73;;;8.64;86.40
75513;BME280;64090;49.770;18.760;2023-05-07T05:06:25;97925.16;;;8.65;86.41
75513;BME280;64090;49.770;18.760;2023-05-07T05:09:28;97928.48;;;8.70;86.32
75513;BME280;64090;49.770;18.760;2023-05-07T05:12:30;97929.31;;;8.76;86.35
75513;BME280;64090;49.770;18.760;2023-05-07T05:15:33;97929.80;;;8.85;86.18
75513;BME280;64090;49.770;18.760;2023-05-07T05:18:36;97934.67;;;8.96;85.89
75513;BME280;64090;49.770;18.760;2023-05-07T05:21:39;97933.02;;;9.02;85.65
75513;BME280;64090;49.770;18.760;2023-05-07T05:24:42;97936.70;;;9.08;85.33
75513;BME280;64090;49.770;18.760;2023-05-07T05:27:45;97937.41;;;9.14;85.07
75513;BME280;64090;49.770;18.760;2023-05-07T05:30:48;97938.89;;;9.15;84.66
75513;BME280;64090;49.770;18.760;2023-05-07T05:33:51;97940.71;;;9.08;85.00
75513;BME280;64090;49.770;18.760;2023-05-07T05:36:53;97942.58;;;9.06;84.95
75513;BME280;64090;49.770;18.760;2023-05-07T05:39:56;97943.14;;;9.07;85.09
75513;BME280;64090;49.770;18.760;2023-05-07T05:42:59;97948.19;;;9.08;84.92
75513;BME280;64090;49.770;18.760;2023-05-07T05:46:02;97951.05;;;9.05;85.11
75513;BME280;64090;49.770;18.760;2023-05-07T05:49:07;97952.54;;;9.00;85.30
75513;BME280;64090;49.770;18.760;2023-05-07T05:52:11;97949.98;;;8.97;85.42
75513;BME280;64090;49.770;18.760;2023-05-07T05:55:15;97949.47;;;8.94;85.38
75513;BME280;64090;49.770;18.760;2023-05-07T05:58:18;97949.95;;;8.89;85.58
75513;BME280;64090;49.770;18.760;2023-05-07T06:01:21;97954.20;;;8.86;85.59
75513;BME280;64090;49.770;18.760;2023-05-07T06:04:24;97955.63;;;8.86;85.49
75513;BME280;64090;49.770;18.760;2023-05-07T06:07:27;97959.71;;;8.91;85.54
75513;BME280;64090;49.770;18.760;2023-05-07T06:10:30;97959.17;;;8.89;85.43
75513;BME280;64090;49.770;18.760;2023-05-07T06:13:33;97959.37;;;8.85;85.62
75513;BME280;64090;49.770;18.760;2023-05-07T06:16:35;97962.00;;;8.86;85.51
75513;BME280;64090;49.770;18.760;2023-05-07T06:19:40;97964.72;;;8.86;85.56
75513;BME280;64090;49.770;18.760;2023-05-07T06:22:43;97966.58;;;8.88;85.64
75513;BME280;64090;49.770;18.760;2023-05-07T06:25:51;97965.05;;;8.89;85.58
75513;BME280;64090;49.770;18.760;2023-05-07T06:28:54;97966.92;;;8.94;85.49
75513;BME280;64090;49.770;18.760;2023-05-07T06:32:06;97971.15;;;8.95;85.28
75513;BME280;64090;49.770;18.760;2023-05-07T06:35:09;97972.27;;;9.02;85.04
75513;BME280;64090;49.770;18.760;2023-05-07T06:38:12;97974.39;;;9.10;84.21
75513;BME280;64090;49.770;18.760;2023-05-07T06:41:15;97978.63;;;9.14;83.75
75513;BME280;64090;49.770;18.760;2023-05-07T06:44:17;97976.23;;;9.16;83.75
75513;BME280;64090;49.770;18.760;2023-05-07T06:47:20;97976.66;;;9.18;83.58
75513;BME280;64090;49.770;18.760;2023-05-07T06:50:23;97977.88;;;9.13;83.72
75513;BME280;64090;49.770;18.760;2023-05-07T06:53:26;97982.14;;;9.09;83.79
75513;BME280;64090;49.770;18.760;2023-05-07T06:56:31;97984.61;;;9.05;83.82
75513;BME280;64090;49.770;18.760;2023-05-07T06:59:34;97988.36;;;8.99;83.85
75513;BME280;64090;49.770;18.760;2023-05-07T07:02:37;97988.02;;;8.91;83.93
75513;BME280;64090;49.770;18.760;2023-05-07T07:05:41;97999.33;;;8.85;84.18
75513;BME280;64090;49.770;18.760;2023-05-07T07:08:44;98003.77;;;8.76;84.50
75513;BME280;64090;49.770;18.760;2023-05-07T07:11:47;98004.98;;;8.63;85.30
75513;BME280;64090;49.770;18.760;2023-05-07T07:14:50;98010.86;;;8.55;85.80
75513;BME280;64090;49.770;18.760;2023-05-07T07:17:53;98015.14;;;8.44;85.98
75513;BME280;64090;49.770;18.760;2023-05-07T07:20:55;98012.14;;;8.40;86.10
75513;BME280;64090;49.770;18.760;2023-05-07T07:23:58;98014.20;;;8.42;86.12
75513;BME280;64090;49.770;18.760;2023-05-07T07:27:01;98013.54;;;8.42;86.33
75513;BME280;64090;49.770;18.760;2023-05-07T07:30:04;98016.13;;;8.45;86.37
75513;BME280;64090;49.770;18.760;2023-05-07T07:33:08;98015.66;;;8.51;86.19
75513;BME280;64090;49.770;18.760;2023-05-07T07:36:10;98020.75;;;8.63;86.02
75513;BME280;64090;49.770;18.760;2023-05-07T07:39:13;98023.70;;;8.67;85.74
75513;BME280;64090;49.770;18.760;2023-05-07T07:42:16;98031.12;;;8.69;85.61
75513;BME280;64090;49.770;18.760;2023-05-07T07:45:20;98026.66;;;8.63;85.23
75513;BME280;64090;49.770;18.760;2023-05-07T07:48:22;98031.13;;;8.58;85.43
75513;BME280;64090;49.770;18.760;2023-05-07T07:51:25;98032.61;;;8.57;85.85
75513;BME280;64090;49.770;18.760;2023-05-07T07:54:29;98035.98;;;8.53;86.09
75513;BME280;64090;49.770;18.760;2023-05-07T07:57:32;98032.13;;;8.57;86.04
75513;BME280;64090;49.770;18.760;2023-05-07T08:00:36;98033.80;;;8.58;85.84
75513;BME280;64090;49.770;18.760;2023-05-07T08:03:39;98037.64;;;8.56;85.98
75513;BME280;64090;49.770;18.760;2023-05-07T08:06:42;98050.11;;;8.52;86.01
75513;BME280;64090;49.770;18.760;2023-05-07T08:09:45;98054.67;;;8.40;86.61
75513;BME280;64090;49.770;18.760;2023-05-07T08:12:51;98062.55;;;8.27;86.71
75513;BME280;64090;49.770;18.760;2023-05-07T08:15:54;98061.02;;;8.19;86.97
75513;BME280;64090;49.770;18.760;2023-05-07T08:18:57;98066.06;;;8.14;87.34
75513;BME280;64090;49.770;18.760;2023-05-07T08:22:00;98061.61;;;8.07;87.23
75513;BME280;64090;49.770;18.760;2023-05-07T08:25:03;98063.95;;;8.03;87.12
75513;BME280;64090;49.770;18.760;2023-05-07T08:28:06;98069.20;;;8.02;87.46
75513;BME280;64090;49.770;18.760;2023-05-07T08:31:11;98073.03;;;8.02;87.41
75513;BME280;64090;49.770;18.760;2023-05-07T08:34:14;98075.61;;;8.03;87.41
75513;BME280;64090;49.770;18.760;2023-05-07T08:37:17;98078.59;;;8.07;87.07
75513;BME280;64090;49.770;18.760;2023-05-07T08:40:25;98083.08;;;8.15;86.81
75513;BME280;64090;49.770;18.760;2023-05-07T08:43:28;98086.64;;;8.16;86.49
75513;BME280;64090;49.770;18.760;2023-05-07T08:46:34;98088.21;;;8.15;86.12
75513;BME280;64090;49.770;18.760;2023-05-07T08:49:37;98092.73;;;8.13;86.22
75513;BME280;64090;49.770;18.760;2023-05-07T08:52:40;98092.34;;;8.13;86.41
75513;BME280;64090;49.770;18.760;2023-05-07T08:55:44;98099.02;;;8.13;86.07
75513;BME280;64090;49.770;18.760;2023-05-07T08:58:48;98099.91;;;8.16;86.00
75513;BME280;64090;49.770;18.760;2023-05-07T09:01:51;98097.92;;;8.19;85.78
75513;BME280;64090;49.770;18.760;2023-05-07T09:04:54;98103.00;;;8.21;85.54
75513;BME280;64090;49.770;18.760;2023-05-07T09:08:02;98107.14;;;8.20;85.34
75513;BME280;64090;49.770;18.760;2023-05-07T09:11:05;98104.91;;;8.23;85.14
75513;BME280;64090;49.770;18.760;2023-05-07T09:14:08;98108.98;;;8.26;84.99
75513;BME280;64090;49.770;18.760;2023-05-07T09:17:11;98117.17;;;8.29;84.94
75513;BME280;64090;49.770;18.760;2023-05-07T09:20:14;98115.14;;;8.26;84.87
75513;BME280;64090;49.770;18.760;2023-05-07T09:23:17;98117.73;;;8.25;84.71
75513;BME280;64090;49.770;18.760;2023-05-07T09:26:24;98122.98;;;8.18;84.75
75513;BME280;64090;49.770;18.760;2023-05-07T09:29:27;98124.66;;;8.20;84.62
75513;BME280;64090;49.770;18.760;2023-05-07T09:32:36;98127.21;;;8.21;84.40
75513;BME280;64090;49.770;18.760;2023-05-07T09:35:53;98131.38;;;8.22;84.32
75513;BME280;64090;49.770;18.760;2023-05-07T09:38:59;98137.50;;;8.25;83.90
75513;BME280;64090;49.770;18.760;2023-05-07T09:42:02;98141.80;;;8.23;84.10
75513;BME280;64090;49.770;18.760;2023-05-07T09:45:05;98138.81;;;8.29;83.64
75513;BME280;64090;49.770;18.760;2023-05-07T09:48:08;98141.58;;;8.37;83.35
75513;BME280;64090;49.770;18.760;2023-05-07T09:51:25;98138.31;;;8.45;82.85
75513;BME280;64090;49.770;18.760;2023-05-07T09:54:31;98143.94;;;8.42;83.00
75513;BME280;64090;49.770;18.760;2023-05-07T09:57:36;98147.98;;;8.41;82.91
75513;BME280;64090;49.770;18.760;2023-05-07T10:00:39;98147.80;;;8.41;83.05
75513;BME280;64090;49.770;18.760;2023-05-07T10:03:44;98153.73;;;8.42;83.11
75513;BME280;64090;49.770;18.760;2023-05-07T10:06:48;98161.17;;;8.35;82.89
75513;BME280;64090;49.770;18.760;2023-05-07T10:09:51;98163.40;;;8.35;82.96
75513;BME280;64090;49.770;18.760;2023-05-07T10:12:55;98162.32;;;8.36;82.92
75513;BME280;64090;49.770;18.760;2023-05-07T10:15:58;98165.13;;;8.47;83.09
75513;BME280;64090;49.770;18.760;2023-05-07T10:19:06;98165.00;;;8.56;82.54
75513;BME280;64090;49.770;18.760;2023-05-07T10:22:09;98165.92;;;8.55;82.46
75513;BME280;64090;49.770;18.760;2023-05-07T10:25:26;98167.98;;;8.54;82.34
75513;BME280;64090;49.770;18.760;2023-05-07T10:28:34;98170.27;;;8.50;82.34
75513;BME280;64090;49.770;18.760;2023-05-07T10:31:53;98177.52;;;8.56;82.31
75513;BME280;64090;49.770;18.760;2023-05-07T10:35:02;98176.55;;;8.58;81.85
75513;BME280;64090;49.770;18.760;2023-05-07T10:38:05;98171.81;;;8.61;81.39
75513;BME280;64090;49.770;18.760;2023-05-07T10:51:00;98183.83;;;8.89;80.39
75513;BME280;64090;49.770;18.760;2023-05-07T10:54:47;98185.38;;;9.18;79.53
75513;BME280;64090;49.770;18.760;2023-05-07T10:59:39;98185.09;;;9.24;78.80
75513;BME280;64090;49.770;18.760;2023-05-07T11:07:58;98185.88;;;9.50;76.81
75513;BME280;64090;49.770;18.760;2023-05-07T11:12:01;98188.98;;;9.69;76.72
75513;BME280;64090;49.770;18.760;2023-05-07T11:16:02;98192.44;;;9.71;76.38
75513;BME280;64090;49.770;18.760;2023-05-07T11:20:59;98192.20;;;9.65;75.32
75513;BME280;64090;49.770;18.760;2023-05-07T11:32:59;98204.42;;;9.36;76.05
75513;BME280;64090;49.770;18.760;2023-05-07T11:37:03;98205.64;;;9.28;75.63
75513;BME280;64090;49.770;18.760;2023-05-07T11:40:33;98210.39;;;9.27;75.97
75513;BME280;64090;49.770;18.760;2023-05-07T11:44:25;98212.41;;;9.38;75.64
75513;BME280;64090;49.770;18.760;2023-05-07T12:02:37;98215.54;;;9.18;75.82
75513;BME280;64090;49.770;18.760;2023-05-07T12:28:05;98229.64;;;9.04;75.88
75513;BME280;64090;49.770;18.760;2023-05-07T12:32:15;98234.80;;;8.95;76.13
75513;BME280;64090;49.770;18.760;2023-05-07T12:49:04;98246.16;;;8.63;77.21
75513;BME280;64090;49.770;18.760;2023-05-07T13:31:27;98252.70;;;8.58;77.30
75513;BME280;64090;49.770;18.760;2023-05-07T13:35:45;98259.36;;;8.57;77.33
75513;BME280;64090;49.770;18.760;2023-05-07T13:39:42;98252.66;;;8.69;76.80
75513;BME280;64090;49.770;18.760;2023-05-07T13:43:55;98246.77;;;8.95;76.31
75513;BME280;64090;49.770;18.760;2023-05-07T13:48:08;98250.20;;;8.93;75.96
75513;BME280;64090;49.770;18.760;2023-05-07T14:44:37;98300.91;;;7.51;79.12
75513;BME280;64090;49.770;18.760;2023-05-07T14:58:03;98298.61;;;7.16;80.52
75513;BME280;64090;49.770;18.760;2023-05-07T16:31:20;98333.56;;;6.64;80.21
75513;BME280;64090;49.770;18.760;2023-05-07T17:15:39;98351.40;;;6.30;80.42
75513;BME280;64090;49.770;18.760;2023-05-07T18:00:04;98375.35;;;5.97;81.92
75513;BME280;64090;49.770;18.760;2023-05-07T18:42:03;98395.17;;;5.54;83.98
75513;BME280;64090;49.770;18.760;2023-05-07T19:22:50;98426.21;;;5.46;84.55
75513;BME280;64090;49.770;18.760;2023-05-07T22:05:32;98503.34;;;5.08;84.39
75513;BME280;64090;49.770;18.760;2023-05-07T23:24:37;98477.27;;;4.85;83.81
